Terminal Aerodrome Forecast
Issued by NWS Charleston, WV

Current Version | Previous Version | Graphics & Text | Print | Product List | Glossary On
Versions: 1 2 3 4 5 6 7 8 9 10 11 12 13 14 15 16 17 18 19 20 21 22 23 24 25
000
FTUS41 KRLX 230200 AAA
TAFHTS
TAF AMD
KHTS 230258Z 2303/2324 VRB03KT P6SM SKC
     FM230400 00000KT 6SM BR SKC
     FM230700 00000KT 2SM BR SCT001
     FM230900 00000KT 1/2SM FG VV001
     FM231300 VRB03KT 2SM BR BKN002
     FM231400 VRB03KT P6SM SKC=

USA.gov is the U.S. government's official web portal to all federal, state and local government web resources and services.